Time;durP1;ratioP1;P1;durP2;ratioP2;P2;SDS_P1;SDS_P2;PMS_P1;PMS_P2;Temp;Humidity;BMP_temperature;BMP_pressure;BME280_temperature;BME280_humidity;BME280_pressure;Samples;Min_cycle;Max_cycle;Signal;HPM_P1;HPM_P2
2022/02/24 00:00:21;;;;;;;28.83;15.17;;;;;;;1.32;100.00;100020.35;1686377;82;21042;-72
2022/02/24 00:02:48;;;;;;;27.73;15.93;;;;;;;1.26;100.00;100014.16;1742780;82;21039;-69
2022/02/24 00:05:15;;;;;;;31.00;18.13;;;;;;;1.24;100.00;100015.21;1742961;82;21109;-71
2022/02/24 00:07:42;;;;;;;34.73;22.23;;;;;;;1.22;100.00;100022.02;1742724;82;21085;-71
2022/02/24 00:10:11;;;;;;;34.77;21.90;;;;;;;1.17;100.00;100017.95;1743231;82;21515;-70
2022/02/24 00:12:41;;;;;;;39.83;22.30;;;;;;;1.15;100.00;100019.39;1742894;82;21035;-71
2022/02/24 00:15:09;;;;;;;36.47;21.43;;;;;;;1.10;100.00;100017.08;1742877;82;21055;-72
2022/02/24 00:17:38;;;;;;;37.57;21.63;;;;;;;1.08;100.00;100021.67;1719947;82;21000;-71
2022/02/24 00:20:07;;;;;;;38.00;22.13;;;;;;;1.05;100.00;100019.72;1742921;82;21039;-70
2022/02/24 00:22:34;;;;;;;36.43;21.90;;;;;;;1.00;100.00;100020.03;1742896;82;21456;-71
2022/02/24 00:25:01;;;;;;;39.13;23.60;;;;;;;0.93;100.00;100022.28;1718567;82;21090;-70
2022/02/24 00:27:29;;;;;;;47.63;26.67;;;;;;;0.86;100.00;100024.16;1742822;82;21563;-71
2022/02/24 00:29:58;;;;;;;45.20;26.50;;;;;;;0.78;100.00;100024.72;1743128;82;21502;-70
2022/02/24 00:32:24;;;;;;;46.00;25.67;;;;;;;0.69;100.00;100024.02;1742975;82;21020;-70
2022/02/24 00:34:52;;;;;;;43.60;24.43;;;;;;;0.62;100.00;100024.95;1742694;82;21098;-70
2022/02/24 00:37:19;;;;;;;44.90;25.07;;;;;;;0.58;100.00;100019.94;1742649;82;21070;-71
2022/02/24 00:39:47;;;;;;;37.40;21.90;;;;;;;0.51;100.00;100020.39;1743037;82;21495;-71
2022/02/24 00:42:14;;;;;;;41.20;23.00;;;;;;;0.46;100.00;100015.86;1743011;82;20987;-71
2022/02/24 00:44:41;;;;;;;48.53;28.23;;;;;;;0.41;100.00;100010.47;1742860;82;21094;-69
2022/02/24 00:47:08;;;;;;;58.53;31.97;;;;;;;0.33;100.00;100006.53;1742798;82;20991;-71
2022/02/24 00:49:36;;;;;;;50.37;29.23;;;;;;;0.29;100.00;100009.04;1742479;82;21118;-70
2022/02/24 00:52:04;;;;;;;44.63;25.73;;;;;;;0.27;100.00;100005.64;1742412;82;21019;-70
2022/02/24 00:54:31;;;;;;;45.73;26.17;;;;;;;0.27;100.00;100006.97;1742571;82;21062;-71
2022/02/24 00:56:58;;;;;;;80.87;42.83;;;;;;;0.27;100.00;100000.81;1742810;82;21027;-71
2022/02/24 00:59:25;;;;;;;86.33;46.07;;;;;;;0.25;100.00;100008.89;1742933;82;21504;-70
2022/02/24 01:01:52;;;;;;;119.97;57.30;;;;;;;0.24;100.00;100002.34;1742540;82;21019;-70
2022/02/24 01:04:19;;;;;;;132.07;65.97;;;;;;;0.24;100.00;100006.33;1743067;82;21082;-70
2022/02/24 01:06:46;;;;;;;138.00;70.33;;;;;;;0.22;100.00;100003.77;1742666;82;21027;-71
2022/02/24 01:09:13;;;;;;;171.40;84.60;;;;;;;0.20;100.00;99995.05;1742710;82;21039;-69
2022/02/24 01:11:40;;;;;;;153.67;74.87;;;;;;;0.18;100.00;99995.16;1742985;82;21020;-71
2022/02/24 01:14:08;;;;;;;96.97;47.33;;;;;;;0.18;100.00;99994.31;1742653;82;21044;-70
2022/02/24 01:16:37;;;;;;;63.77;33.77;;;;;;;0.17;100.00;99988.13;1742464;82;21563;-70
2022/02/24 01:19:04;;;;;;;115.20;53.90;;;;;;;0.19;100.00;99986.69;1719822;82;21058;-70
2022/02/24 01:21:32;;;;;;;225.77;103.83;;;;;;;0.20;100.00;99984.42;1742778;82;21544;-70
2022/02/24 01:23:59;;;;;;;221.07;102.33;;;;;;;0.23;100.00;99978.89;1742957;82;21078;-70
2022/02/24 01:26:26;;;;;;;150.70;71.17;;;;;;;0.26;100.00;99976.00;1742444;82;21055;-70
2022/02/24 01:28:53;;;;;;;97.17;48.87;;;;;;;0.31;100.00;99978.35;1742478;82;21047;-71
2022/02/24 01:31:20;;;;;;;57.10;30.37;;;;;;;0.33;100.00;99965.80;1742567;82;21102;-71
2022/02/24 01:33:47;;;;;;;57.77;29.57;;;;;;;0.35;100.00;99970.52;1742798;82;21125;-71
2022/02/24 01:36:15;;;;;;;35.93;19.60;;;;;;;0.36;100.00;99962.44;1742592;82;20992;-70
2022/02/24 01:38:42;;;;;;;31.30;17.57;;;;;;;0.38;100.00;99965.83;1718061;82;21074;-70
2022/02/24 01:41:09;;;;;;;26.17;14.90;;;;;;;0.40;100.00;99959.08;1742698;82;21062;-71
2022/02/24 01:43:36;;;;;;;25.60;15.57;;;;;;;0.42;100.00;99966.47;1742882;82;21007;-70
2022/02/24 01:46:03;;;;;;;63.07;32.63;;;;;;;0.43;100.00;99967.34;1742659;82;21540;-68
2022/02/24 01:48:30;;;;;;;87.07;46.07;;;;;;;0.43;100.00;99965.52;1742858;82;21043;-69
2022/02/24 01:50:58;;;;;;;157.60;75.27;;;;;;;0.44;100.00;99967.70;1742634;82;21071;-70
2022/02/24 01:53:25;;;;;;;181.77;87.30;;;;;;;0.44;100.00;99975.19;1742627;82;21063;-70
2022/02/24 01:55:52;;;;;;;209.03;97.87;;;;;;;0.45;100.00;99977.39;1742605;82;21008;-70
2022/02/24 01:58:19;;;;;;;252.30;116.53;;;;;;;0.44;100.00;99975.19;1742898;82;21027;-70
2022/02/24 02:00:46;;;;;;;236.73;110.47;;;;;;;0.43;100.00;99976.16;1718473;82;21006;-70
2022/02/24 02:03:14;;;;;;;208.70;92.67;;;;;;;0.41;100.00;99975.42;1743214;82;21055;-71
2022/02/24 02:05:41;;;;;;;169.97;78.10;;;;;;;0.42;100.00;99981.09;1743418;82;21035;-70
2022/02/24 02:08:08;;;;;;;124.37;57.80;;;;;;;0.42;100.00;99980.26;1742733;82;21051;-70
2022/02/24 02:10:36;;;;;;;69.80;34.73;;;;;;;0.40;100.00;99987.01;1719973;82;21039;-69
2022/02/24 02:13:05;;;;;;;120.87;47.10;;;;;;;0.40;100.00;99986.17;1742862;82;21488;-71
2022/02/24 02:15:33;;;;;;;262.53;97.37;;;;;;;0.36;100.00;99991.70;1742810;82;21050;-69
2022/02/24 02:18:00;;;;;;;169.50;64.30;;;;;;;0.35;100.00;99992.67;1742755;82;21480;-70
2022/02/24 02:20:28;;;;;;;243.53;103.10;;;;;;;0.35;100.00;99998.45;1742569;82;21094;-70
2022/02/24 02:22:55;;;;;;;221.63;98.53;;;;;;;0.35;100.00;99994.45;1743043;82;21042;-70
2022/02/24 02:25:23;;;;;;;183.00;86.43;;;;;;;0.39;100.00;100005.28;1742984;82;21440;-69
2022/02/24 02:27:51;;;;;;;239.50;105.47;;;;;;;0.41;100.00;100003.81;1742739;82;21102;-70
2022/02/24 02:30:19;;;;;;;272.70;116.97;;;;;;;0.42;100.00;100002.87;1743207;82;21030;-69
2022/02/24 02:32:46;;;;;;;270.40;115.07;;;;;;;0.43;100.00;100011.23;1742953;82;21055;-70
2022/02/24 02:35:13;;;;;;;280.97;122.70;;;;;;;0.41;100.00;100012.67;1742477;82;21555;-70
2022/02/24 02:37:40;;;;;;;198.87;92.23;;;;;;;0.39;100.00;100014.59;1743010;82;21079;-70
2022/02/24 02:40:10;;;;;;;130.67;58.50;;;;;;;0.35;100.00;100017.07;1742679;82;21500;-70
2022/02/24 02:42:37;;;;;;;142.40;62.03;;;;;;;0.31;100.00;100011.11;1718848;82;21031;-70
2022/02/24 02:45:06;;;;;;;376.47;160.03;;;;;;;0.30;100.00;100016.53;1742690;82;21000;-70
2022/02/24 02:47:33;;;;;;;249.40;117.00;;;;;;;0.29;100.00;100020.16;1742914;82;21054;-69
2022/02/24 02:50:00;;;;;;;151.50;79.80;;;;;;;0.32;100.00;100015.94;1742842;82;21062;-70
2022/02/24 02:52:27;;;;;;;100.50;53.30;;;;;;;0.34;100.00;100018.89;1743108;82;21023;-71
2022/02/24 02:55:05;;;;;;;72.13;40.63;;;;;;;0.35;100.00;100017.94;1742914;82;21023;-71
2022/02/24 02:57:32;;;;;;;103.07;47.17;;;;;;;0.38;100.00;100015.05;1674167;86;21105;-70
2022/02/24 03:00:00;;;;;;;83.80;39.53;;;;;;;0.40;100.00;100018.09;1739528;82;21011;-70
2022/02/24 03:02:27;;;;;;;93.27;43.60;;;;;;;0.40;100.00;100020.27;1715259;82;21472;-70
2022/02/24 03:04:54;;;;;;;89.50;42.53;;;;;;;0.39;100.00;100021.23;1710424;82;21031;-72
2022/02/24 03:07:22;;;;;;;82.00;39.33;;;;;;;0.36;100.00;100012.98;1739831;82;21495;-69
2022/02/24 03:09:52;;;;;;;85.47;41.23;;;;;;;0.33;100.00;100024.30;1739443;82;21152;-71
2022/02/24 03:12:19;;;;;;;73.60;36.83;;;;;;;0.29;100.00;100019.67;1739861;82;21578;-70
2022/02/24 03:14:48;;;;;;;108.70;50.27;;;;;;;0.26;100.00;100025.69;1739752;82;21035;-69
2022/02/24 03:17:16;;;;;;;162.43;73.10;;;;;;;0.22;100.00;100030.86;1715517;82;21042;-72
2022/02/24 03:19:43;;;;;;;178.83;85.23;;;;;;;0.17;100.00;100032.00;1724988;82;21067;-71
2022/02/24 03:22:12;;;;;;;143.30;71.83;;;;;;;0.15;100.00;100031.26;1715194;82;21055;-70
2022/02/24 03:24:40;;;;;;;261.00;123.13;;;;;;;0.15;100.00;100037.06;1739488;82;21047;-71
2022/02/24 03:27:07;;;;;;;198.10;96.30;;;;;;;0.16;100.00;100033.43;1715272;82;21047;-68
2022/02/24 03:29:34;;;;;;;269.73;127.53;;;;;;;0.13;100.00;100037.16;1739616;82;21015;-70
2022/02/24 03:32:02;;;;;;;287.80;130.60;;;;;;;0.12;100.00;100038.11;1739950;82;21024;-70
2022/02/24 03:34:30;;;;;;;251.13;118.00;;;;;;;0.12;100.00;100033.28;1714899;82;21109;-71
2022/02/24 03:36:58;;;;;;;211.07;99.67;;;;;;;0.11;100.00;100031.59;1739837;82;21058;-70
2022/02/24 03:39:25;;;;;;;157.23;77.37;;;;;;;0.10;100.00;100034.70;1715486;82;21539;-70
2022/02/24 03:41:52;;;;;;;132.67;65.73;;;;;;;0.10;100.00;100033.86;1715465;82;21027;-69
2022/02/24 03:44:19;;;;;;;84.67;45.30;;;;;;;0.08;100.00;100033.13;1715283;82;21096;-70
2022/02/24 03:46:46;;;;;;;65.50;36.43;;;;;;;0.03;100.00;100033.91;1739772;82;21007;-70
2022/02/24 03:49:13;;;;;;;54.60;31.73;;;;;;;-0.02;100.00;100036.86;1739701;82;21126;-70
2022/02/24 03:51:40;;;;;;;53.77;31.70;;;;;;;-0.08;100.00;100038.62;1739427;82;21073;-70
2022/02/24 03:54:07;;;;;;;52.80;30.70;;;;;;;-0.14;100.00;100041.22;1774968;79;21013;-70
2022/02/24 03:56:34;;;;;;;69.03;38.93;;;;;;;-0.20;100.00;100042.45;1700552;82;21062;-69
2022/02/24 03:59:02;;;;;;;85.57;44.67;;;;;;;-0.26;100.00;100048.67;1699482;82;21062;-70
2022/02/24 04:01:29;;;;;;;87.73;45.43;;;;;;;-0.31;100.00;100048.13;1737634;82;21018;-71
2022/02/24 04:03:56;;;;;;;89.67;44.17;;;;;;;-0.37;100.00;100045.86;1674076;82;21086;-70
2022/02/24 04:06:24;;;;;;;138.43;68.33;;;;;;;-0.42;100.00;100047.02;1769592;79;21035;-71
2022/02/24 04:08:51;;;;;;;103.00;52.80;;;;;;;-0.42;100.00;100048.84;1737747;81;21077;-70
2022/02/24 04:11:18;;;;;;;224.43;104.47;;;;;;;-0.41;100.00;100046.08;1728558;82;21027;-71
2022/02/24 04:13:45;;;;;;;245.73;114.57;;;;;;;-0.35;100.00;100047.48;1717515;82;21027;-71
2022/02/24 04:16:12;;;;;;;238.63;116.03;;;;;;;-0.30;100.00;100043.17;1683088;83;21474;-71
2022/02/24 04:18:39;;;;;;;213.17;108.87;;;;;;;-0.25;100.00;100043.72;1733004;82;21069;-71
2022/02/24 04:21:06;;;;;;;175.50;94.53;;;;;;;-0.22;100.00;100045.70;1697092;81;21079;-70
2022/02/24 04:23:33;;;;;;;163.80;87.90;;;;;;;-0.18;100.00;100049.48;1718135;82;21074;-69
2022/02/24 04:26:00;;;;;;;164.20;87.13;;;;;;;-0.17;100.00;100042.75;1695107;83;21003;-70
2022/02/24 04:28:27;;;;;;;211.57;101.73;;;;;;;-0.15;100.00;100050.13;1733571;82;21185;-69
2022/02/24 04:30:54;;;;;;;246.70;118.50;;;;;;;-0.16;100.00;100047.13;1696091;82;21074;-69
2022/02/24 04:33:21;;;;;;;231.93;113.60;;;;;;;-0.17;100.00;100052.05;1695417;82;21519;-71
2022/02/24 04:35:48;;;;;;;212.90;104.47;;;;;;;-0.18;100.00;100045.50;1717830;81;21010;-70
2022/02/24 04:38:22;;;;;;;265.53;126.57;;;;;;;-0.19;100.00;100055.29;1711177;82;21511;-69
2022/02/24 04:40:49;;;;;;;189.40;97.33;;;;;;;-0.20;100.00;100057.56;1709775;82;21066;-69
2022/02/24 04:43:16;;;;;;;140.00;77.03;;;;;;;-0.21;100.00;100050.55;1743934;82;21019;-70
2022/02/24 04:45:43;;;;;;;271.00;126.20;;;;;;;-0.22;100.00;100054.16;1771624;81;21054;-69
2022/02/24 04:48:11;;;;;;;309.93;139.33;;;;;;;-0.22;100.00;100055.00;1717694;82;21061;-70
2022/02/24 04:50:38;;;;;;;293.03;132.47;;;;;;;-0.22;100.00;100053.67;1712909;82;21058;-71
2022/02/24 04:53:06;;;;;;;240.07;113.07;;;;;;;-0.20;100.00;100057.56;1813824;79;20971;-70
2022/02/24 04:55:33;;;;;;;195.03;94.03;;;;;;;-0.21;100.00;100049.23;1800570;78;21535;-71
2022/02/24 04:58:00;;;;;;;151.73;77.97;;;;;;;-0.21;100.00;100062.52;1808712;79;21556;-71
2022/02/24 05:00:27;;;;;;;135.90;73.23;;;;;;;-0.21;100.00;100056.72;1721881;82;21029;-70
2022/02/24 05:02:54;;;;;;;132.67;68.00;;;;;;;-0.21;100.00;100058.05;1747516;82;21031;-70
2022/02/24 05:05:22;;;;;;;193.63;100.57;;;;;;;-0.24;100.00;100052.92;1803465;79;21089;-72
2022/02/24 05:07:49;;;;;;;171.43;92.27;;;;;;;-0.22;100.00;100059.47;1806928;79;21010;-70
2022/02/24 05:10:16;;;;;;;170.60;90.17;;;;;;;-0.19;100.00;100056.62;1799775;78;21010;-71
2022/02/24 05:12:44;;;;;;;124.53;68.20;;;;;;;-0.17;100.00;100056.52;1778950;79;21058;-71
2022/02/24 05:15:11;;;;;;;91.80;52.90;;;;;;;-0.09;100.00;100053.73;1762519;80;21491;-69
2022/02/24 05:17:40;;;;;;;84.73;46.97;;;;;;;0.03;100.00;100048.05;1744965;81;21098;-69
2022/02/24 05:20:09;;;;;;;94.53;46.53;;;;;;;0.15;100.00;100044.55;1773708;80;21531;-69
2022/02/24 05:22:41;;;;;;;169.30;77.37;;;;;;;0.41;100.00;100031.29;1767685;79;21042;-70
2022/02/24 05:25:13;;;;;;;190.67;92.33;;;;;;;0.72;100.00;100021.98;1694803;82;21027;-68
2022/02/24 05:27:44;;;;;;;201.53;101.33;;;;;;;0.88;100.00;100023.57;1746655;80;21570;-69
2022/02/24 05:30:13;;;;;;;167.80;89.33;;;;;;;0.94;100.00;100024.48;1803185;79;21014;-69
2022/02/24 05:32:42;;;;;;;137.13;76.00;;;;;;;0.98;100.00;100024.63;1807219;79;21511;-70
2022/02/24 05:35:10;;;;;;;102.23;53.87;;;;;;;0.99;100.00;100030.79;1701189;83;21855;-70
2022/02/24 05:37:37;;;;;;;51.27;29.67;;;;;;;0.97;100.00;100032.72;1790878;79;21030;-70
2022/02/24 05:40:06;;;;;;;37.53;22.80;;;;;;;0.92;100.00;100029.91;1696757;82;20993;-70
2022/02/24 05:42:34;;;;;;;100.03;44.60;;;;;;;0.89;100.00;100036.78;1693845;83;21046;-69
2022/02/24 05:45:01;;;;;;;50.60;26.90;;;;;;;0.87;100.00;100038.70;1687425;83;21026;-69
2022/02/24 05:47:29;;;;;;;36.60;21.10;;;;;;;0.88;100.00;100044.88;1691804;83;21034;-70
2022/02/24 05:49:56;;;;;;;38.70;20.50;;;;;;;0.89;100.00;100046.58;1710478;83;21078;-72
2022/02/24 05:52:36;;;;;;;33.57;19.07;;;;;;;0.91;100.00;100051.31;1717336;83;21038;-69
2022/02/24 05:55:05;;;;;;;33.63;19.50;;;;;;;0.93;100.00;100056.89;1652036;86;21065;-70
2022/02/24 05:57:32;;;;;;;48.10;27.40;;;;;;;0.98;100.00;100060.57;1627839;87;21126;-71
2022/02/24 06:00:01;;;;;;;46.00;24.83;;;;;;;1.04;100.00;100060.61;1618258;87;21266;-69
2022/02/24 06:02:31;;;;;;;213.30;80.50;;;;;;;1.12;100.00;100064.91;1686148;84;22448;-70
2022/02/24 06:04:58;;;;;;;158.40;61.17;;;;;;;1.21;100.00;100064.73;1666905;85;21068;-70
2022/02/24 06:07:25;;;;;;;248.20;97.10;;;;;;;1.30;100.00;100064.06;1689769;83;21071;-70
2022/02/24 06:09:52;;;;;;;229.30;114.10;;;;;;;1.40;100.00;100068.23;1684574;84;21056;-69
2022/02/24 06:12:19;;;;;;;154.77;80.37;;;;;;;1.48;100.00;100069.86;1691765;84;21203;-69
2022/02/24 06:14:47;;;;;;;65.07;34.40;;;;;;;1.59;100.00;100076.58;1686582;84;21103;-70
2022/02/24 06:17:14;;;;;;;49.73;27.60;;;;;;;1.69;100.00;100081.61;1671616;84;21098;-70
2022/02/24 06:19:42;;;;;;;43.03;21.77;;;;;;;1.80;100.00;100087.48;1690850;84;21078;-70
2022/02/24 06:22:09;;;;;;;33.40;18.33;;;;;;;1.90;100.00;100089.84;1691817;84;21568;-70
2022/02/24 06:24:36;;;;;;;28.17;15.00;;;;;;;2.02;100.00;100101.87;1692402;84;21620;-70
2022/02/24 06:27:04;;;;;;;27.20;14.97;;;;;;;2.14;100.00;100109.45;1665977;85;21130;-69
2022/02/24 06:29:31;;;;;;;26.17;13.40;;;;;;;2.24;100.00;100120.64;1672578;85;21098;-70
2022/02/24 06:31:58;;;;;;;24.20;12.47;;;;;;;2.35;100.00;100132.33;1666108;84;21051;-69
2022/02/24 06:34:25;;;;;;;26.93;12.43;;;;;;;2.46;100.00;100144.36;1689033;84;21079;-71
2022/02/24 06:36:52;;;;;;;24.97;12.70;;;;;;;2.54;100.00;100152.66;1646666;85;21122;-72
2022/02/24 06:39:19;;;;;;;22.80;11.87;;;;;;;2.62;100.00;100169.41;1674050;84;21033;-70
2022/02/24 06:41:46;;;;;;;21.67;11.50;;;;;;;2.73;100.00;100185.98;1624431;85;21050;-69
2022/02/24 06:44:14;;;;;;;25.60;13.00;;;;;;;2.83;100.00;100197.17;1683492;83;21557;-70
2022/02/24 06:46:41;;;;;;;24.37;11.63;;;;;;;2.98;100.00;100206.30;1690349;84;20994;-71
2022/02/24 06:49:08;;;;;;;23.00;11.27;;;;;;;3.11;100.00;100217.73;1651540;85;21202;-69
2022/02/24 06:51:35;;;;;;;23.07;11.10;;;;;;;3.23;100.00;100238.66;1676498;85;21173;-69
2022/02/24 06:54:03;;;;;;;27.23;10.60;;;;;;;3.32;100.00;100254.46;1703039;83;21086;-69
2022/02/24 06:56:30;;;;;;;20.60;10.67;;;;;;;3.36;100.00;100275.47;1687265;84;21466;-69
2022/02/24 06:58:57;;;;;;;27.43;12.67;;;;;;;3.43;100.00;100297.23;1754950;80;20995;-69
2022/02/24 07:01:25;;;;;;;34.23;16.63;;;;;;;3.51;100.00;100313.55;1766662;81;21061;-70
2022/02/24 07:03:53;;;;;;;39.33;19.17;;;;;;;3.68;100.00;100318.05;1729664;80;21062;-69
2022/02/24 07:06:21;;;;;;;26.03;14.57;;;;;;;3.92;100.00;100327.33;1747712;81;20999;-69
2022/02/24 07:08:49;;;;;;;23.80;11.63;;;;;;;4.14;100.00;100332.69;1727491;82;21373;-70
2022/02/24 07:11:17;;;;;;;26.50;14.93;;;;;;;4.33;100.00;100340.06;1747574;81;21511;-70
2022/02/24 07:13:44;;;;;;;27.07;11.83;;;;;;;4.56;100.00;100342.72;1759302;80;20996;-68
2022/02/24 07:16:11;;;;;;;22.93;12.30;;;;;;;4.85;100.00;100353.73;1763264;80;21010;-70
2022/02/24 07:18:38;;;;;;;21.10;11.30;;;;;;;5.13;100.00;100361.67;1734483;80;20998;-70
2022/02/24 07:21:07;;;;;;;24.13;12.50;;;;;;;5.35;100.00;100364.36;1769740;80;20980;-70
2022/02/24 07:23:35;;;;;;;27.67;12.67;;;;;;;5.49;100.00;100388.20;1759637;80;20999;-70
2022/02/24 07:26:02;;;;;;;19.43;10.50;;;;;;;5.57;100.00;100408.51;1745577;80;21019;-69
2022/02/24 07:28:29;;;;;;;19.97;10.07;;;;;;;5.65;100.00;100428.84;1772176;81;21069;-70
2022/02/24 07:30:58;;;;;;;17.87;9.57;;;;;;;5.75;100.00;100441.47;1671663;83;21093;-69
2022/02/24 07:33:25;;;;;;;25.57;11.37;;;;;;;5.86;100.00;100460.19;1743814;81;21046;-70
2022/02/24 07:35:52;;;;;;;18.73;10.20;;;;;;;6.04;100.00;100464.53;1743793;80;21023;-70
2022/02/24 07:38:19;;;;;;;30.33;17.30;;;;;;;6.25;100.00;100466.70;1727220;80;21058;-68
2022/02/24 07:40:48;;;;;;;23.60;11.17;;;;;;;6.44;100.00;100491.45;1723243;80;21023;-70
2022/02/24 07:43:15;;;;;;;22.23;10.83;;;;;;;6.63;100.00;100516.73;1742658;81;21544;-71
2022/02/24 07:45:42;;;;;;;21.80;10.00;;;;;;;6.66;100.00;100535.30;1729265;81;21043;-70
2022/02/24 07:48:09;;;;;;;21.37;10.00;;;;;;;6.79;100.00;100536.41;1757793;80;21025;-70
2022/02/24 07:50:36;;;;;;;21.00;10.70;;;;;;;6.92;100.00;100552.30;1661082;84;21164;-71
2022/02/24 07:53:03;;;;;;;22.50;11.77;;;;;;;7.01;100.00;100559.55;1722717;81;21081;-69
2022/02/24 07:55:32;;;;;;;26.77;14.10;;;;;;;7.13;100.00;100569.22;1745600;81;21614;-69
2022/02/24 07:57:59;;;;;;;60.37;34.37;;;;;;;7.22;100.00;100575.16;1719928;80;21128;-69
2022/02/24 08:00:26;;;;;;;39.00;27.60;;;;;;;7.36;100.00;100590.04;1765147;80;21451;-71
2022/02/24 08:02:55;;;;;;;34.80;22.43;;;;;;;7.40;100.00;100594.18;1750591;81;21484;-71
2022/02/24 08:05:22;;;;;;;37.03;24.50;;;;;;;7.48;100.00;100607.44;1766619;80;21022;-71
2022/02/24 08:07:49;;;;;;;32.07;21.47;;;;;;;7.54;100.00;100613.13;1745265;81;21547;-70
2022/02/24 08:10:16;;;;;;;26.50;14.50;;;;;;;7.57;100.00;100622.25;1718341;81;20975;-70
2022/02/24 08:12:44;;;;;;;29.63;19.00;;;;;;;7.64;100.00;100625.76;1720834;81;21062;-69
2022/02/24 08:15:21;;;;;;;26.10;17.90;;;;;;;7.75;100.00;100631.86;1728848;80;21026;-71
2022/02/24 08:17:50;;;;;;;28.00;18.50;;;;;;;7.95;100.00;100635.45;1740847;81;21026;-70
2022/02/24 08:20:17;;;;;;;29.50;18.33;;;;;;;8.11;100.00;100636.73;1732541;81;21051;-71
2022/02/24 08:22:47;;;;;;;29.27;17.10;;;;;;;8.20;100.00;100641.77;1744629;80;21084;-71
2022/02/24 08:25:16;;;;;;;25.77;15.80;;;;;;;8.32;100.00;100633.43;1756869;80;21491;-70
2022/02/24 08:27:44;;;;;;;32.83;17.67;;;;;;;8.54;100.00;100634.16;1770296;80;21027;-69
2022/02/24 08:30:14;;;;;;;22.83;14.07;;;;;;;8.79;100.00;100637.25;1781982;80;21078;-71
2022/02/24 08:32:41;;;;;;;24.90;15.33;;;;;;;8.82;100.00;100643.67;1660421;83;21089;-70
2022/02/24 08:35:09;;;;;;;29.13;15.40;;;;;;;8.63;100.00;100655.36;1714198;82;20983;-70
2022/02/24 08:37:37;;;;;;;25.90;15.23;;;;;;;8.50;100.00;100650.27;1730150;82;21053;-70
2022/02/24 08:40:06;;;;;;;29.40;15.00;;;;;;;8.54;100.00;100647.13;1731556;81;21669;-69
2022/02/24 08:42:33;;;;;;;30.87;17.60;;;;;;;8.66;100.00;100641.60;1747355;82;21019;-69
2022/02/24 08:45:00;;;;;;;26.23;15.47;;;;;;;8.81;100.00;100641.48;1697862;82;21094;-70
2022/02/24 08:47:27;;;;;;;26.07;14.03;;;;;;;8.83;100.00;100650.78;1779660;79;21119;-70
2022/02/24 08:49:56;;;;;;;27.53;15.33;;;;;;;8.79;100.00;100647.52;1747460;80;21030;-70
2022/02/24 08:52:23;;;;;;;25.50;16.33;;;;;;;8.92;100.00;100651.25;1730850;81;21021;-70
2022/02/24 08:54:50;;;;;;;27.97;15.13;;;;;;;8.98;100.00;100650.69;1750949;81;21177;-70
2022/02/24 08:57:17;;;;;;;26.23;15.10;;;;;;;9.10;100.00;100652.22;1779038;80;21605;-70
2022/02/24 08:59:45;;;;;;;21.10;11.80;;;;;;;9.15;100.00;100653.61;1782062;80;21296;-70
2022/02/24 09:02:12;;;;;;;37.40;20.87;;;;;;;9.21;100.00;100643.59;1757181;81;21476;-72
2022/02/24 09:04:39;;;;;;;25.90;15.87;;;;;;;9.33;100.00;100653.21;1754694;80;21494;-70
2022/02/24 09:07:07;;;;;;;21.37;11.83;;;;;;;9.50;100.00;100656.96;1756072;80;21499;-69
2022/02/24 09:09:34;;;;;;;21.23;10.93;;;;;;;9.59;100.00;100661.97;1778375;80;20975;-70
2022/02/24 09:12:01;;;;;;;18.50;8.97;;;;;;;9.66;100.00;100672.52;1776706;80;21023;-70
2022/02/24 09:14:29;;;;;;;19.57;9.63;;;;;;;9.69;100.00;100673.58;1758927;80;21021;-70
2022/02/24 09:16:58;;;;;;;21.50;12.07;;;;;;;9.56;100.00;100683.85;1748083;79;21047;-70
2022/02/24 09:19:26;;;;;;;22.13;9.63;;;;;;;9.49;100.00;100684.46;1747350;80;21035;-69
2022/02/24 09:21:55;;;;;;;17.90;9.00;;;;;;;9.67;100.00;100684.52;1754602;80;21054;-71
2022/02/24 09:24:22;;;;;;;11.95;6.70;;;;;;;9.85;100.00;100679.67;1788367;80;21038;-70
2022/02/24 09:26:49;;;;;;;15.20;7.70;;;;;;;10.00;100.00;100686.25;1771911;80;21098;-71
2022/02/24 09:29:16;;;;;;;16.05;8.48;;;;;;;9.92;100.00;100702.89;1720710;81;21144;-71
2022/02/24 09:31:43;;;;;;;13.75;7.67;;;;;;;9.86;100.00;100704.31;1741716;81;21013;-69
2022/02/24 09:34:10;;;;;;;14.33;6.97;;;;;;;10.01;100.00;100706.03;1754994;80;21043;-70
2022/02/24 09:36:38;;;;;;;16.52;7.25;;;;;;;10.17;100.00;100709.42;1760771;80;21585;-72
2022/02/24 09:39:05;;;;;;;10.55;5.95;;;;;;;10.24;100.00;100709.16;1716757;82;20992;-71
2022/02/24 09:41:32;;;;;;;18.70;7.85;;;;;;;10.20;100.00;100714.02;1705794;83;21072;-70
2022/02/24 09:44:04;;;;;;;13.58;6.17;;;;;;;10.01;99.15;100715.48;1703969;83;21040;-70
2022/02/24 09:46:34;;;;;;;14.70;6.55;;;;;;;9.96;98.18;100720.48;1704988;83;21542;-70
2022/02/24 09:49:03;;;;;;;18.73;7.95;;;;;;;10.00;99.42;100721.87;1696057;83;21148;-69
2022/02/24 09:51:31;;;;;;;13.43;6.40;;;;;;;9.89;98.82;100717.02;1718909;82;21065;-70
2022/02/24 09:53:59;;;;;;;13.20;6.43;;;;;;;9.75;94.60;100720.73;1687022;83;21049;-68
2022/02/24 09:56:29;;;;;;;14.65;7.53;;;;;;;9.38;92.75;100726.97;1759077;80;21054;-71
2022/02/24 09:58:56;;;;;;;18.98;7.58;;;;;;;9.20;99.39;100725.02;1743159;81;21062;-69
2022/02/24 10:01:23;;;;;;;15.73;7.70;;;;;;;9.24;100.00;100718.84;1727149;81;21058;-69
2022/02/24 10:03:59;;;;;;;15.43;7.67;;;;;;;9.28;100.00;100721.62;1736900;81;21427;-71
2022/02/24 10:06:38;;;;;;;14.67;6.50;;;;;;;9.29;100.00;100726.00;1722754;81;21073;-70
2022/02/24 10:09:08;;;;;;;16.80;8.60;;;;;;;9.24;100.00;100721.53;1738103;81;21098;-69
2022/02/24 10:11:38;;;;;;;14.83;7.60;;;;;;;9.17;100.00;100731.20;1690562;83;21088;-69
2022/02/24 10:14:24;;;;;;;13.10;5.87;;;;;;;9.18;100.00;100722.97;1693898;84;21151;-68
2022/02/24 10:17:04;;;;;;;12.87;6.40;;;;;;;9.22;100.00;100720.84;1689140;83;21088;-68
2022/02/24 10:19:44;;;;;;;18.12;8.58;;;;;;;9.25;100.00;100716.50;1688372;83;21190;-70
2022/02/24 10:22:28;;;;;;;16.67;7.93;;;;;;;9.17;100.00;100717.72;1689583;84;21040;-69
2022/02/24 10:25:05;;;;;;;16.17;7.17;;;;;;;9.16;100.00;100718.23;1691889;84;21139;-69
2022/02/24 10:27:38;;;;;;;17.30;8.80;;;;;;;9.22;100.00;100705.48;1693450;83;21031;-70
2022/02/24 10:30:16;;;;;;;19.98;8.40;;;;;;;9.29;100.00;100709.81;1690554;83;21052;-70
2022/02/24 10:32:50;;;;;;;15.97;7.37;;;;;;;9.29;100.00;100709.81;1687182;84;21126;-71
2022/02/24 10:35:25;;;;;;;;;;;;;;;9.16;100.00;100703.89;1692899;84;21094;-69
2022/02/24 10:38:05;;;;;;;14.43;6.30;;;;;;;9.10;100.00;100711.57;1688049;84;20101;-70
2022/02/24 10:40:38;;;;;;;17.33;7.23;;;;;;;8.96;100.00;100712.02;1689673;84;21024;-71
2022/02/24 10:43:32;;;;;;;15.13;6.30;;;;;;;8.98;100.00;100708.68;1691328;84;21561;-70
2022/02/24 10:46:13;;;;;;;14.53;6.77;;;;;;;8.91;99.21;100705.70;1690776;84;21132;-68
2022/02/24 10:48:56;;;;;;;15.07;6.93;;;;;;;8.84;99.50;100699.18;1688505;83;21146;-70
2022/02/24 10:51:30;;;;;;;10.07;5.70;;;;;;;8.86;100.00;100696.34;1691996;84;21524;-70
2022/02/24 10:54:13;;;;;;;13.20;5.97;;;;;;;8.96;100.00;100688.22;1691808;84;21102;-70
2022/02/24 10:56:43;;;;;;;14.10;6.37;;;;;;;9.07;100.00;100692.97;1691536;84;21052;-69
2022/02/24 10:59:12;;;;;;;12.53;5.77;;;;;;;9.14;100.00;100691.89;1670085;83;21507;-70
2022/02/24 11:01:40;;;;;;;11.13;5.27;;;;;;;9.30;100.00;100682.67;1687378;84;21092;-69
2022/02/24 11:04:07;;;;;;;8.53;4.70;;;;;;;9.49;100.00;100691.21;1688842;84;21056;-70
2022/02/24 11:06:36;;;;;;;16.17;5.43;;;;;;;9.56;95.39;100690.60;1686073;84;21021;-70
2022/02/24 11:09:06;;;;;;;9.33;4.93;;;;;;;9.55;92.95;100700.56;1740419;81;21088;-70
2022/02/24 11:11:37;;;;;;;11.60;5.27;;;;;;;9.68;94.90;100701.09;1718738;82;21112;-71